• Join FlightAware (Why Join?)
  • Login
  • US Flag 
10:22AM EDT


 

Airport Tracker/Info


-or-


 

Live Flight TrackerFlight Track Log ✈ CHH7103 ✈ 07-Jul-2013 ✈ ZBAA / PEK - ZYMD / MDG

Flight Track Log - Related Links

Times and Time Zones

All times are in EDT time to prevent confusion due to time zone crossing. See the CHH7103 flight status page for this flight to view local times or setup timezone preferences in your user account.

Time Position Orientation Groundspeed Altitude Reporting Facility
EDT Latitude Longitude Course Direction KTS MPH feet Rate Location/Type
10:37PM 40.1315 116.7053 61° Northeast  Level Estimated
10:38PM 40.1827 116.8263 61° Northeast  Level Estimated
10:39PM 40.2338 116.9474 61° Northeast  Level Estimated
10:40PM 40.2848 117.0687 61° Northeast  Level Estimated
10:41PM 40.3357 117.1902 61° Northeast  Level Estimated
10:42PM 40.3864 117.3119 61° Northeast  Level Estimated
10:43PM 40.4370 117.4337 61° Northeast  Level Estimated
10:44PM 40.4875 117.5558 61° Northeast  Level Estimated
10:45PM 40.5378 117.6780 62° Northeast  Level Estimated
10:46PM 40.5880 117.8004 62° Northeast  Level Estimated
10:47PM 40.6381 117.9230 62° Northeast  Level Estimated
10:48PM 40.6881 118.0458 62° Northeast  Level Estimated
10:49PM 40.7379 118.1687 62° Northeast  Level Estimated
10:50PM 40.7876 118.2919 62° Northeast  Level Estimated
10:51PM 40.8372 118.4152 62° Northeast  Level Estimated
10:52PM 40.8866 118.5387 62° Northeast  Level Estimated
10:53PM 40.9359 118.6624 62° Northeast  Level Estimated
10:54PM 40.9851 118.7863 62° Northeast  Level Estimated
10:55PM 41.0341 118.9104 62° Northeast  Level Estimated
10:56PM 41.0830 119.0346 62° Northeast  Level Estimated
10:57PM 41.1318 119.1591 62° Northeast  Level Estimated
10:58PM 41.1804 119.2837 63° Northeast  Level Estimated
10:59PM 41.2289 119.4085 63° Northeast  Level Estimated
11:00PM 41.2773 119.5335 63° Northeast  Level Estimated
11:01PM 41.3255 119.6587 63° Northeast  Level Estimated
11:02PM 41.3736 119.7840 63° Northeast  Level Estimated
11:03PM 41.4216 119.9096 63° Northeast  Level Estimated
11:04PM 41.4694 120.0353 63° Northeast  Level Estimated
11:05PM 41.5171 120.1612 63° Northeast  Level Estimated
11:06PM 41.5646 120.2873 63° Northeast  Level Estimated
11:07PM 41.6120 120.4136 63° Northeast  Level Estimated
11:08PM 41.6593 120.5401 63° Northeast  Level Estimated
11:09PM 41.7064 120.6667 63° Northeast  Level Estimated
11:10PM 41.7534 120.7936 64° Northeast  Level Estimated
11:11PM 41.8003 120.9206 64° Northeast  Level Estimated
11:12PM 41.8470 121.0478 64° Northeast  Level Estimated
11:13PM 41.8936 121.1752 64° Northeast  Level Estimated
11:14PM 41.9400 121.3028 64° Northeast  Level Estimated
11:15PM 41.9863 121.4306 64° Northeast  Level Estimated
11:16PM 42.0324 121.5585 64° Northeast  Level Estimated
11:17PM 42.0784 121.6867 64° Northeast  Level Estimated
11:18PM 42.1243 121.8150 64° Northeast  Level Estimated
11:19PM 42.1700 121.9435 64° Northeast  Level Estimated
11:20PM 42.2156 122.0722 64° Northeast  Level Estimated
11:21PM 42.2610 122.2011 64° Northeast  Level Estimated
11:22PM 42.3063 122.3302 65° Northeast  Level Estimated
11:23PM 42.3515 122.4595 65° Northeast  Level Estimated
11:24PM 42.3965 122.5889 65° Northeast  Level Estimated
11:25PM 42.4413 122.7185 65° Northeast  Level Estimated
11:26PM 42.4860 122.8483 65° Northeast  Level Estimated
11:27PM 42.5306 122.9783 65° Northeast  Level Estimated
11:28PM 42.5750 123.1085 65° Northeast  Level Estimated
11:29PM 42.6193 123.2389 65° Northeast  Level Estimated
11:30PM 42.6634 123.3695 65° Northeast  Level Estimated
11:31PM 42.7073 123.5002 65° Northeast  Level Estimated
11:32PM 42.7512 123.6311 65° Northeast  Level Estimated
11:33PM 42.7948 123.7622 66° East  Level Estimated
11:34PM 42.8383 123.8935 66° East  Level Estimated
11:35PM 42.8817 124.0250 66° East  Level Estimated
11:36PM 42.9249 124.1567 66° East  Level Estimated
11:37PM 42.9680 124.2885 66° East  Level Estimated
11:38PM 43.0109 124.4206 66° East  Level Estimated
11:39PM 43.0537 124.5528 66° East  Level Estimated
11:40PM 43.0963 124.6852 66° East  Level Estimated
11:41PM 43.1388 124.8178 66° East  Level Estimated
11:42PM 43.1811 124.9505 66° East  Level Estimated
11:43PM 43.2232 125.0835 66° East  Level Estimated
11:44PM 43.2652 125.2166 67° East  Level Estimated
11:45PM 43.3070 125.3500 67° East  Level Estimated
11:46PM 43.3487 125.4835 67° East  Level Estimated
11:47PM 43.3903 125.6171 67° East  Level Estimated
11:48PM 43.4316 125.7510 67° East  Level Estimated
11:49PM 43.4729 125.8851 67° East  Level Estimated
11:50PM 43.5139 126.0193 67° East  Level Estimated
11:51PM 43.5548 126.1537 67° East  Level Estimated
11:52PM 43.5956 126.2883 67° East  Level Estimated
11:53PM 43.6362 126.4231 67° East  Level Estimated
11:54PM 43.6766 126.5581 67° East  Level Estimated
11:55PM 43.7169 126.6932 68° East  Level Estimated
11:56PM 43.7570 126.8286 68° East  Level Estimated
11:57PM 43.7999 126.9743 68° East  Level Estimated
11:58PM 43.8427 127.1202 68° East  Level Estimated
11:59PM 43.8853 127.2663 68° East  Level Estimated
12:00AM 43.9277 127.4127 68° East  Level Estimated
12:01AM 43.9699 127.5592 68° East  Level Estimated
12:02AM 44.0119 127.7060 68° East  Level Estimated
12:03AM 44.0537 127.8530 68° East  Level Estimated
12:04AM 44.0954 128.0001 68° East  Level Estimated
12:05AM 44.1368 128.1475 69° East  Level Estimated
12:06AM 44.1781 128.2951 69° East  Level Estimated
12:07AM 44.2192 128.4429 69° East  Level Estimated
12:08AM 44.2601 128.5909 69° East  Level Estimated
12:09AM 44.3008 128.7391 69° East  Level Estimated
12:10AM 44.3413 128.8875 69° East  Level Estimated
12:11AM 44.3816 129.0361 69° East  Level Estimated
12:12AM 44.4217 129.1849 69° East  Level Estimated
12:13AM 44.4616 129.3339 69° East  Level Estimated
12:14AM 44.5013 129.4832 69° East  Level Estimated
12:15AM 44.5241 129.5690 70° East  Level Estimated
12:16AM 44.5241 129.5690 35° Northeast  Level Estimated
12:17AM 44.5241 129.5690 35° Northeast  Level Estimated
12:18AM 44.5241 129.5690 35° Northeast  Level Estimated
12:19AM 44.5241 129.5690 35° Northeast  Level Estimated
12:20AM 44.5241 129.5690 35° Northeast  Level Estimated
12:21AM 44.5241 129.5690 35° Northeast  Level Estimated
12:22AM 44.5241 129.5690 35° Northeast  Level Estimated
12:23AM 44.5241 129.5690 35° Northeast  Level Estimated
12:24AM 44.5241 129.5690 35° Northeast  Level Estimated
12:25AM 44.5241 129.5690 35° Northeast  Level Estimated
12:26AM 44.5241 129.5690 35° Northeast  Level Estimated
12:27AM 44.5241 129.5690 35° Northeast  Level Estimated
12:28AM 44.5241 129.5690 35° Northeast  Level Estimated
12:29AM 44.5241 129.5690 35° Northeast  Level Estimated
12:30AM 44.5241 129.5690 35° Northeast  Level Estimated
12:31AM 44.5241 129.5690 35° Northeast  Level Estimated
12:32AM 44.5241 129.5690 35° Northeast  Level Estimated
12:33AM 44.5241 129.5690 35° Northeast  Level Estimated
12:34AM 44.5241 129.5690 35° Northeast  Level Estimated
12:35AM 44.5241 129.5690 35° Northeast  Level Estimated
12:36AM 44.5241 129.5690 35° Northeast  Level Estimated
12:37AM 44.5241 129.5690 35° Northeast  Level Estimated
12:38AM 44.5241 129.5690 35° Northeast  Level Estimated
12:39AM 44.5241 129.5690 35° Northeast  Level Estimated
12:40AM 44.5241 129.5690 35° Northeast  Level Estimated
12:41AM 44.5241 129.5690 35° Northeast  Level Estimated
12:42AM 44.5241 129.5690 35° Northeast  Level Estimated
12:43AM 44.5241 129.5690 35° Northeast  Level Estimated
12:44AM 44.5241 129.5690 35° Northeast  Level Estimated
12:45AM 44.5241 129.5690 35° Northeast  Level Estimated
12:46AM 44.5241 129.5690 35° Northeast  Level Estimated
12:47AM 44.5241 129.5690 35° Northeast  Level Estimated
12:48AM 44.5241 129.5690 35° Northeast  Level Estimated
12:49AM 44.5241 129.5690 35° Northeast  Level Estimated
12:50AM 44.5241 129.5690 35° Northeast  Level Estimated
12:51AM 44.5241 129.5690 35° Northeast  Level Estimated
12:52AM 44.5241 129.5690 35° Northeast  Level Estimated
12:53AM 44.5241 129.5690 35° Northeast  Level Estimated
12:54AM 44.5241 129.5690 35° Northeast  Level Estimated
12:55AM 44.5241 129.5690 35° Northeast  Level Estimated
12:56AM 44.5241 129.5690 35° Northeast  Level Estimated
12:57AM 44.5241 129.5690 35° Northeast  Level Estimated
12:58AM 44.5241 129.5690 35° Northeast  Level Estimated
12:59AM 44.5241 129.5690 35° Northeast  Level Estimated
01:00AM 44.5241 129.5690 35° Northeast  Level Estimated
01:01AM 44.5241 129.5690 35° Northeast  Level Estimated
01:02AM 44.5241 129.5690 35° Northeast  Level Estimated
01:03AM 44.5241 129.5690 35° Northeast  Level Estimated
01:04AM 44.5241 129.5690 35° Northeast  Level Estimated
01:05AM 44.5241 129.5690 35° Northeast  Level Estimated
01:06AM 44.5241 129.5690 35° Northeast  Level Estimated
01:07AM 44.5241 129.5690 35° Northeast  Level Estimated
01:08AM 44.5241 129.5690 35° Northeast  Level Estimated
01:09AM 44.5241 129.5690 35° Northeast  Level Estimated
01:10AM 44.5241 129.5690 35° Northeast  Level Estimated
01:11AM 44.5241 129.5690 35° Northeast  Level Estimated
01:12AM 44.5241 129.5690 35° Northeast  Level Estimated
01:13AM 44.5241 129.5690 35° Northeast  Level Estimated
01:14AM 44.5241 129.5690 35° Northeast  Level Estimated
01:15AM 44.5241 129.5690 35° Northeast  Level Estimated
01:16AM 44.5241 129.5690 35° Northeast  Level Estimated
01:17AM 44.5241 129.5690 35° Northeast  Level Estimated
01:18AM 44.5241 129.5690 35° Northeast  Level Estimated
01:19AM 44.5241 129.5690 35° Northeast  Level Estimated
01:20AM 44.5241 129.5690 35° Northeast  Level Estimated
01:21AM 44.5241 129.5690 35° Northeast  Level Estimated
01:22AM 44.5241 129.5690 35° Northeast  Level Estimated
01:23AM 44.5241 129.5690 35° Northeast  Level Estimated
01:24AM 44.5241 129.5690 35° Northeast  Level Estimated